MOL Celebration — C6WW7 — position and weather

sailwx.info

Track history (hours):
 
Tides and Currents Weather Stations Pressure Air Temp Water Temp Dewpoint Dewpoint Depression Visibility Wind Speed Wind Dir Waves Ship Positions

MOL Celebration

Last reported at 2017-Dec-03 21:45 UTC. Time now 2017-Dec-16 09:23 UTC.
Position N 24°15' E 118°16'.
Warning: this ship's position is 12 days out of date.

Length 316 m; draft 9.4 m.

Type: Ship (hazmat cat D). MMSI: 309901000.

Date/timePositionNaut miles runAvg speedWind from/ knotsBaromVisibWave heightAir tempDewpointWater temp
2017-Dec-03 21:45N 24°15' E 118°16'312.8
2017-Dec-03 21:31N 24°17' E 118°13'713.8
2017-Dec-03 21:01N 24°22' E 118°08'612.5
2017-Dec-03 20:30N 24°26' E 118°03'2 4.5
2017-Dec-03 19:59N 24°27' E 118°00'0 0.0
2017-Dec-03 19:29N 24°27' E 118°00'0 0.0
2017-Dec-03 18:59N 24°27' E 118°00'0 0.0
2017-Dec-03 18:29N 24°27' E 118°00'0 0.0
2017-Dec-03 17:59N 24°27' E 118°00'0 0.0
2017-Dec-03 17:29N 24°27' E 118°00'0 0.0
2017-Dec-03 16:59N 24°27' E 118°00'0 0.0
2017-Dec-03 16:29N 24°27' E 118°00'0 0.0
2017-Dec-03 15:59N 24°27' E 118°00'0 0.0
2017-Dec-03 15:29N 24°27' E 118°00'0 0.1
2017-Dec-03 14:59N 24°27' E 118°00'0 0.1
2017-Dec-03 14:29N 24°27' E 118°00'0 0.0
2017-Dec-03 13:59N 24°27' E 118°00'0 0.0
2017-Dec-03 13:29N 24°27' E 118°00'0 0.0
2017-Dec-03 12:56N 24°27' E 118°00'0 0.0
2017-Dec-03 12:29N 24°27' E 118°00'0 0.0
2017-Dec-03 11:59N 24°27' E 118°00'0 0.0
2017-Dec-03 11:29N 24°27' E 118°00'0 0.0
2017-Dec-03 10:59N 24°27' E 118°00'0 0.0
2017-Dec-03 10:29N 24°27' E 118°00'0 0.0
2017-Dec-03 09:59N 24°27' E 118°00'0 0.0
2017-Dec-03 09:29N 24°27' E 118°00'0 0.0
2017-Dec-03 08:59N 24°27' E 118°00'0 0.0
2017-Dec-03 08:29N 24°27' E 118°00'0 0.0
2017-Dec-03 07:59N 24°27' E 118°00'0 0.0
2017-Dec-03 07:29N 24°27' E 118°00'0 0.1
2017-Dec-03 06:59N 24°27' E 118°00'0 0.0
2017-Dec-03 06:29N 24°27' E 118°00'0 0.1
2017-Dec-03 05:59N 24°27' E 118°00'0 0.0
2017-Dec-03 05:29N 24°27' E 118°00'0 0.1
2017-Dec-03 04:59N 24°27' E 118°00'0 0.0
2017-Dec-03 04:28N 24°27' E 118°00'0 0.0
2017-Dec-03 03:59N 24°27' E 118°00'0 0.1
2017-Dec-03 03:29N 24°27' E 118°00'0 0.0
2017-Dec-03 02:59N 24°27' E 118°00'0 0.0
2017-Dec-03 02:20N 24°27' E 118°00'0 0.0
2017-Dec-03 01:59N 24°27' E 118°00'0 0.0
2017-Dec-03 01:29N 24°27' E 118°00'0 0.0
2017-Dec-03 00:59N 24°27' E 118°00'0 0.0
2017-Dec-03 00:26N 24°27' E 118°00'0 0.0
2017-Dec-02 23:59N 24°27' E 118°00'0 0.0
2017-Dec-02 23:29N 24°27' E 118°00'0 0.1
2017-Dec-02 23:00N 24°27' E 118°00'1 2.8
2017-Dec-02 22:30N 24°26' E 118°02'5 9.8
2017-Dec-02 22:00N 24°24' E 118°06'4 7.9
2017-Dec-02 21:30N 24°21' E 118°09'611.1
2017-Dec-02 20:59N 24°17' E 118°14'611.8
2017-Dec-02 20:30N 24°13' E 118°18'14214.5
2017-Dec-02 10:42N 25°20' E 120°36'619.7
2017-Dec-02 10:25N 25°23' E 120°41'1619.9
2017-Dec-02 09:36N 25°32' E 120°56'219.8
2017-Dec-02 09:30N 25°33' E 120°58'  
2017-Nov-30 02:02N 34°24' E 138°56'121.1
2017-Nov-30 02:00N 34°25' E 138°56'1120.9
2017-Nov-30 01:29N 34°30' E 139°08'1420.5
2017-Nov-30 00:50N 34°37' E 139°22'719.8
2017-Nov-30 00:27N 34°40' E 139°30'919.5
2017-Nov-29 23:59N 34°47' E 139°37'1021.2
2017-Nov-29 23:30N 34°57' E 139°40'1019.2
2017-Nov-29 23:01N 35°06' E 139°44'713.5
2017-Nov-29 22:30N 35°12' E 139°46'611.7
2017-Nov-29 22:00N 35°18' E 139°44'612.7
2017-Nov-29 21:30N 35°24' E 139°43'714.5
2017-Nov-29 21:00N 35°29' E 139°50'612.2
2017-Nov-29 20:30N 35°35' E 139°48'3 5.0
2017-Nov-29 20:00N 35°36' E 139°46'0 0.2
2017-Nov-29 19:29N 35°36' E 139°46'0 0.0
2017-Nov-29 18:59N 35°36' E 139°46'0 0.0
2017-Nov-29 18:26N 35°36' E 139°46'0 0.0
2017-Nov-29 17:59N 35°36' E 139°46'0 0.0
2017-Nov-29 17:29N 35°36' E 139°46'0 0.0
2017-Nov-29 16:59N 35°36' E 139°46'0 0.0
2017-Nov-29 16:29N 35°36' E 139°46'0 0.0
2017-Nov-29 15:59N 35°36' E 139°46'0 0.0
2017-Nov-29 15:29N 35°36' E 139°46'0 0.0
2017-Nov-29 14:59N 35°36' E 139°46'0 0.0
2017-Nov-29 14:29N 35°36' E 139°46'0 0.0
2017-Nov-29 13:59N 35°36' E 139°46'0 0.0
2017-Nov-29 13:29N 35°36' E 139°46'0 0.0
2017-Nov-29 12:59N 35°36' E 139°46'0 0.0
2017-Nov-29 12:29N 35°36' E 139°46'0 0.0
2017-Nov-29 11:56N 35°36' E 139°46'0 0.0
2017-Nov-29 11:29N 35°36' E 139°46'0 0.0
2017-Nov-29 10:56N 35°36' E 139°46'0 0.0
2017-Nov-29 10:29N 35°36' E 139°46'0 0.0
2017-Nov-29 09:59N 35°36' E 139°46'1 1.5
2017-Nov-29 09:30N 35°36' E 139°47'3 6.4
2017-Nov-29 09:00N 35°34' E 139°49'4 7.5
2017-Nov-29 08:30N 35°31' E 139°52'612.2
2017-Nov-29 08:00N 35°26' E 139°48'612.6
2017-Nov-29 07:30N 35°20' E 139°44'612.0
2017-Nov-29 07:00N 35°14' E 139°47'611.1
2017-Nov-29 06:30N 35°09' E 139°47'5 9.4
2017-Nov-29 06:00N 35°04' E 139°45'510.9
2017-Nov-29 05:30N 34°60' E 139°42'510.4
2017-Nov-29 05:00N 34°54' E 139°42'510.3
2017-Nov-29 04:30N 34°50' E 139°43'4 7.1
2017-Nov-29 04:00N 34°48' E 139°47'917.6
2017-Nov-29 03:29N 34°48' E 139°58'1118.7
2017-Nov-29 02:55N 34°52' E 140°10'818.1
2017-Nov-29 02:30N 34°55' E 140°18'917.1
2017-Nov-29 01:57N 34°58' E 140°29'1218.8
2017-Nov-29 01:20N 35°03' E 140°42'819.7
2017-Nov-29 00:55N 35°07' E 140°51'  
2017-Nov-25 00:00N 45°12' E 178°54'   140 / 151020.5 1.1 11.0 9.0
Track history (hours):
 
Tides and Currents Weather Stations Pressure Air Temp Water Temp Dewpoint Dewpoint Depression Visibility Wind Speed Wind Dir Waves Ship Positions

MOL Celebration

Last reported at 2017-Dec-03 21:45 UTC. Time now 2017-Dec-16 09:23 UTC.
Position N 24°15' E 118°16'.
Warning: this ship's position is 12 days out of date.

Length 316 m; draft 9.4 m.

Type: Ship (hazmat cat D). MMSI: 309901000.

Date/timePositionNaut miles runAvg speedWind from/ knotsBaromVisibWave heightAir tempDewpointWater temp
2017-Dec-03 21:45N 24°15' E 118°16'312.8
2017-Dec-03 21:31N 24°17' E 118°13'713.8
2017-Dec-03 21:01N 24°22' E 118°08'612.5
2017-Dec-03 20:30N 24°26' E 118°03'2 4.5
2017-Dec-03 19:59N 24°27' E 118°00'0 0.0
2017-Dec-03 19:29N 24°27' E 118°00'0 0.0
2017-Dec-03 18:59N 24°27' E 118°00'0 0.0
2017-Dec-03 18:29N 24°27' E 118°00'0 0.0
2017-Dec-03 17:59N 24°27' E 118°00'0 0.0
2017-Dec-03 17:29N 24°27' E 118°00'0 0.0
2017-Dec-03 16:59N 24°27' E 118°00'0 0.0
2017-Dec-03 16:29N 24°27' E 118°00'0 0.0
2017-Dec-03 15:59N 24°27' E 118°00'0 0.0
2017-Dec-03 15:29N 24°27' E 118°00'0 0.1
2017-Dec-03 14:59N 24°27' E 118°00'0 0.1
2017-Dec-03 14:29N 24°27' E 118°00'0 0.0
2017-Dec-03 13:59N 24°27' E 118°00'0 0.0
2017-Dec-03 13:29N 24°27' E 118°00'0 0.0
2017-Dec-03 12:56N 24°27' E 118°00'0 0.0
2017-Dec-03 12:29N 24°27' E 118°00'0 0.0
2017-Dec-03 11:59N 24°27' E 118°00'0 0.0
2017-Dec-03 11:29N 24°27' E 118°00'0 0.0
2017-Dec-03 10:59N 24°27' E 118°00'0 0.0
2017-Dec-03 10:29N 24°27' E 118°00'0 0.0
2017-Dec-03 09:59N 24°27' E 118°00'0 0.0
2017-Dec-03 09:29N 24°27' E 118°00'0 0.0
2017-Dec-03 08:59N 24°27' E 118°00'0 0.0
2017-Dec-03 08:29N 24°27' E 118°00'0 0.0
2017-Dec-03 07:59N 24°27' E 118°00'0 0.0
2017-Dec-03 07:29N 24°27' E 118°00'0 0.1
2017-Dec-03 06:59N 24°27' E 118°00'0 0.0
2017-Dec-03 06:29N 24°27' E 118°00'0 0.1
2017-Dec-03 05:59N 24°27' E 118°00'0 0.0
2017-Dec-03 05:29N 24°27' E 118°00'0 0.1
2017-Dec-03 04:59N 24°27' E 118°00'0 0.0
2017-Dec-03 04:28N 24°27' E 118°00'0 0.0
2017-Dec-03 03:59N 24°27' E 118°00'0 0.1
2017-Dec-03 03:29N 24°27' E 118°00'0 0.0
2017-Dec-03 02:59N 24°27' E 118°00'0 0.0
2017-Dec-03 02:20N 24°27' E 118°00'0 0.0
2017-Dec-03 01:59N 24°27' E 118°00'0 0.0
2017-Dec-03 01:29N 24°27' E 118°00'0 0.0
2017-Dec-03 00:59N 24°27' E 118°00'0 0.0
2017-Dec-03 00:26N 24°27' E 118°00'0 0.0
2017-Dec-02 23:59N 24°27' E 118°00'0 0.0
2017-Dec-02 23:29N 24°27' E 118°00'0 0.1
2017-Dec-02 23:00N 24°27' E 118°00'1 2.8
2017-Dec-02 22:30N 24°26' E 118°02'5 9.8
2017-Dec-02 22:00N 24°24' E 118°06'4 7.9
2017-Dec-02 21:30N 24°21' E 118°09'611.1
2017-Dec-02 20:59N 24°17' E 118°14'611.8
2017-Dec-02 20:30N 24°13' E 118°18'14214.5
2017-Dec-02 10:42N 25°20' E 120°36'619.7
2017-Dec-02 10:25N 25°23' E 120°41'1619.9
2017-Dec-02 09:36N 25°32' E 120°56'219.8
2017-Dec-02 09:30N 25°33' E 120°58'  
2017-Nov-30 02:02N 34°24' E 138°56'121.1
2017-Nov-30 02:00N 34°25' E 138°56'1120.9
2017-Nov-30 01:29N 34°30' E 139°08'1420.5
2017-Nov-30 00:50N 34°37' E 139°22'719.8
2017-Nov-30 00:27N 34°40' E 139°30'919.5
2017-Nov-29 23:59N 34°47' E 139°37'1021.2
2017-Nov-29 23:30N 34°57' E 139°40'1019.2
2017-Nov-29 23:01N 35°06' E 139°44'713.5
2017-Nov-29 22:30N 35°12' E 139°46'611.7
2017-Nov-29 22:00N 35°18' E 139°44'612.7
2017-Nov-29 21:30N 35°24' E 139°43'714.5
2017-Nov-29 21:00N 35°29' E 139°50'612.2
2017-Nov-29 20:30N 35°35' E 139°48'3 5.0
2017-Nov-29 20:00N 35°36' E 139°46'0 0.2
2017-Nov-29 19:29N 35°36' E 139°46'0 0.0
2017-Nov-29 18:59N 35°36' E 139°46'0 0.0
2017-Nov-29 18:26N 35°36' E 139°46'0 0.0
2017-Nov-29 17:59N 35°36' E 139°46'0 0.0
2017-Nov-29 17:29N 35°36' E 139°46'0 0.0
2017-Nov-29 16:59N 35°36' E 139°46'0 0.0
2017-Nov-29 16:29N 35°36' E 139°46'0 0.0
2017-Nov-29 15:59N 35°36' E 139°46'0 0.0
2017-Nov-29 15:29N 35°36' E 139°46'0 0.0
2017-Nov-29 14:59N 35°36' E 139°46'0 0.0
2017-Nov-29 14:29N 35°36' E 139°46'0 0.0
2017-Nov-29 13:59N 35°36' E 139°46'0 0.0
2017-Nov-29 13:29N 35°36' E 139°46'0 0.0
2017-Nov-29 12:59N 35°36' E 139°46'0 0.0
2017-Nov-29 12:29N 35°36' E 139°46'0 0.0
2017-Nov-29 11:56N 35°36' E 139°46'0 0.0
2017-Nov-29 11:29N 35°36' E 139°46'0 0.0
2017-Nov-29 10:56N 35°36' E 139°46'0 0.0
2017-Nov-29 10:29N 35°36' E 139°46'0 0.0
2017-Nov-29 09:59N 35°36' E 139°46'1 1.5
2017-Nov-29 09:30N 35°36' E 139°47'3 6.4
2017-Nov-29 09:00N 35°34' E 139°49'4 7.5
2017-Nov-29 08:30N 35°31' E 139°52'612.2
2017-Nov-29 08:00N 35°26' E 139°48'612.6
2017-Nov-29 07:30N 35°20' E 139°44'612.0
2017-Nov-29 07:00N 35°14' E 139°47'611.1
2017-Nov-29 06:30N 35°09' E 139°47'5 9.4
2017-Nov-29 06:00N 35°04' E 139°45'510.9
2017-Nov-29 05:30N 34°60' E 139°42'510.4
2017-Nov-29 05:00N 34°54' E 139°42'510.3
2017-Nov-29 04:30N 34°50' E 139°43'4 7.1
2017-Nov-29 04:00N 34°48' E 139°47'917.6
2017-Nov-29 03:29N 34°48' E 139°58'1118.7
2017-Nov-29 02:55N 34°52' E 140°10'818.1
2017-Nov-29 02:30N 34°55' E 140°18'917.1
2017-Nov-29 01:57N 34°58' E 140°29'1218.8
2017-Nov-29 01:20N 35°03' E 140°42'819.7
2017-Nov-29 00:55N 35°07' E 140°51'  
2017-Nov-25 00:00N 45°12' E 178°54'   140 / 151020.5 1.1 11.0 9.0

Dump ship's entire track history